Salsacate, Argentina
Current Conditions -  °F | °C
As of 9:00 PM on Monday 20 Oct 2014 (Local Time) from SACO Reporting Station
Clear Clear  
Wind Chill: 64°   Ceiling: Unl
Heat Index: 64°   Visibility: 6mi
Dew Point: 48°   Wind: 7mph
Humidity: 56%   Direction: 20°NNE
Pressure: 30.12"   Gusts: NA
Location:  31.32°S, 65.08°W
Report Text: SACO 210000Z 02006KT CAVOK 18/09 Q1020
Loading
Personal Weather Stations






























Interactive Weather Map
Tropical Storm Tracking
New forecast layout! Learn more

10-Day Weather Forecast

Advertisements
Track Severe Weather on mobile